Halbert, Indiana
Current Conditions -  °F | °C
As of 3:35 AM on Thursday 18 Dec 2014 (Local Time) from KDCY Reporting Station
Overcast Overcast  
Wind Chill: 19°   Ceiling: 1500
Heat Index: 26°   Visibility: 10mi
Dew Point: 19°   Wind: 6mph
Humidity: 75%   Direction: 40°NE
Pressure: 30.28"   Gusts: NA
Location:  38.6262°N, 86.7615°W
Report Text: KDCY 180935Z AUTO 04005KT 10SM OVC015 M03/M07 A3028 RMK AO2 T10331071
Loading
Personal Weather Stations






























Interactive Weather Map New forecast layout! Learn more

10-Day Weather Forecast

Advertisements
Track Severe Weather on mobile